sensor_id;sensor_type;location;lat;lon;timestamp;P1;durP1;ratioP1;P2;durP2;ratioP2
72127;SDS011;60000;51.030;7.024;2023-04-03T00:00:02;5.07;;;1.85;;
72127;SDS011;60000;51.030;7.024;2023-04-03T00:02:28;7.13;;;1.95;;
72127;SDS011;60000;51.030;7.024;2023-04-03T00:04:53;6.73;;;2.90;;
72127;SDS011;60000;51.030;7.024;2023-04-03T00:07:18;5.93;;;2.67;;
72127;SDS011;60000;51.030;7.024;2023-04-03T00:09:44;7.93;;;2.80;;
72127;SDS011;60000;51.030;7.024;2023-04-03T00:12:09;5.80;;;2.10;;
72127;SDS011;60000;51.030;7.024;2023-04-03T00:14:35;5.83;;;2.30;;
72127;SDS011;60000;51.030;7.024;2023-04-03T00:17:01;6.43;;;2.47;;
72127;SDS011;60000;51.030;7.024;2023-04-03T00:19:26;7.17;;;2.47;;
72127;SDS011;60000;51.030;7.024;2023-04-03T00:21:51;6.40;;;2.75;;
72127;SDS011;60000;51.030;7.024;2023-04-03T00:24:18;6.70;;;2.70;;
72127;SDS011;60000;51.030;7.024;2023-04-03T00:26:44;5.35;;;2.33;;
72127;SDS011;60000;51.030;7.024;2023-04-03T00:29:09;5.10;;;1.90;;
72127;SDS011;60000;51.030;7.024;2023-04-03T00:31:34;5.37;;;2.07;;
72127;SDS011;60000;51.030;7.024;2023-04-03T00:34:00;6.03;;;2.43;;
72127;SDS011;60000;51.030;7.024;2023-04-03T00:36:25;6.93;;;2.50;;
72127;SDS011;60000;51.030;7.024;2023-04-03T00:38:51;6.75;;;2.70;;
72127;SDS011;60000;51.030;7.024;2023-04-03T00:41:16;5.67;;;2.53;;
72127;SDS011;60000;51.030;7.024;2023-04-03T00:43:41;7.80;;;3.00;;
72127;SDS011;60000;51.030;7.024;2023-04-03T00:46:07;6.43;;;3.00;;
72127;SDS011;60000;51.030;7.024;2023-04-03T00:48:34;5.80;;;2.53;;
72127;SDS011;60000;51.030;7.024;2023-04-03T00:51:09;5.63;;;2.35;;
72127;SDS011;60000;51.030;7.024;2023-04-03T00:53:46;5.53;;;2.20;;
72127;SDS011;60000;51.030;7.024;2023-04-03T00:56:15;5.32;;;2.03;;
72127;SDS011;60000;51.030;7.024;2023-04-03T00:58:44;10.48;;;2.60;;
72127;SDS011;60000;51.030;7.024;2023-04-03T01:01:16;7.80;;;2.70;;
72127;SDS011;60000;51.030;7.024;2023-04-03T01:03:45;5.50;;;2.25;;
72127;SDS011;60000;51.030;7.024;2023-04-03T01:06:10;9.00;;;3.00;;
72127;SDS011;60000;51.030;7.024;2023-04-03T01:08:36;5.85;;;2.50;;
72127;SDS011;60000;51.030;7.024;2023-04-03T01:11:02;6.47;;;2.70;;
72127;SDS011;60000;51.030;7.024;2023-04-03T01:13:31;6.47;;;2.53;;
72127;SDS011;60000;51.030;7.024;2023-04-03T01:16:00;6.55;;;2.65;;
72127;SDS011;60000;51.030;7.024;2023-04-03T01:18:30;6.18;;;2.55;;
72127;SDS011;60000;51.030;7.024;2023-04-03T01:26:48;7.03;;;2.90;;
72127;SDS011;60000;51.030;7.024;2023-04-03T01:29:14;5.57;;;2.50;;
72127;SDS011;60000;51.030;7.024;2023-04-03T01:31:53;7.13;;;2.90;;
72127;SDS011;60000;51.030;7.024;2023-04-03T01:34:21;5.95;;;2.63;;
72127;SDS011;60000;51.030;7.024;2023-04-03T01:36:47;6.10;;;2.47;;
72127;SDS011;60000;51.030;7.024;2023-04-03T01:39:12;6.30;;;2.70;;
72127;SDS011;60000;51.030;7.024;2023-04-03T01:41:38;6.33;;;2.53;;
72127;SDS011;60000;51.030;7.024;2023-04-03T01:44:03;6.20;;;2.93;;
72127;SDS011;60000;51.030;7.024;2023-04-03T01:46:29;6.43;;;2.38;;
72127;SDS011;60000;51.030;7.024;2023-04-03T01:48:54;6.07;;;2.20;;
72127;SDS011;60000;51.030;7.024;2023-04-03T01:51:20;8.87;;;2.70;;
72127;SDS011;60000;51.030;7.024;2023-04-03T01:53:45;6.20;;;2.10;;
72127;SDS011;60000;51.030;7.024;2023-04-03T01:56:10;5.57;;;2.07;;
72127;SDS011;60000;51.030;7.024;2023-04-03T01:58:36;5.00;;;2.00;;
72127;SDS011;60000;51.030;7.024;2023-04-03T02:01:01;6.05;;;1.92;;
72127;SDS011;60000;51.030;7.024;2023-04-03T02:03:27;5.50;;;1.70;;
72127;SDS011;60000;51.030;7.024;2023-04-03T02:05:52;4.03;;;1.50;;
72127;SDS011;60000;51.030;7.024;2023-04-03T02:08:18;4.80;;;1.77;;
72127;SDS011;60000;51.030;7.024;2023-04-03T02:10:44;5.70;;;1.70;;
72127;SDS011;60000;51.030;7.024;2023-04-03T02:13:11;5.13;;;1.60;;
72127;SDS011;60000;51.030;7.024;2023-04-03T02:15:40;5.97;;;2.10;;
72127;SDS011;60000;51.030;7.024;2023-04-03T02:18:06;4.18;;;1.33;;
72127;SDS011;60000;51.030;7.024;2023-04-03T02:20:31;4.85;;;1.85;;
72127;SDS011;60000;51.030;7.024;2023-04-03T02:22:57;8.20;;;2.43;;
72127;SDS011;60000;51.030;7.024;2023-04-03T02:25:23;4.05;;;1.63;;
72127;SDS011;60000;51.030;7.024;2023-04-03T02:27:49;5.00;;;1.53;;
72127;SDS011;60000;51.030;7.024;2023-04-03T02:30:14;6.53;;;1.73;;
72127;SDS011;60000;51.030;7.024;2023-04-03T02:32:40;7.25;;;1.75;;
72127;SDS011;60000;51.030;7.024;2023-04-03T02:35:07;4.13;;;1.40;;
72127;SDS011;60000;51.030;7.024;2023-04-03T02:37:32;5.47;;;1.70;;
72127;SDS011;60000;51.030;7.024;2023-04-03T02:39:58;5.57;;;2.20;;
72127;SDS011;60000;51.030;7.024;2023-04-03T02:42:23;4.95;;;1.90;;
72127;SDS011;60000;51.030;7.024;2023-04-03T02:44:49;4.43;;;1.63;;
72127;SDS011;60000;51.030;7.024;2023-04-03T02:47:14;4.93;;;1.80;;
72127;SDS011;60000;51.030;7.024;2023-04-03T02:49:39;6.77;;;2.67;;
72127;SDS011;60000;51.030;7.024;2023-04-03T02:52:05;6.70;;;2.47;;
72127;SDS011;60000;51.030;7.024;2023-04-03T02:54:30;6.20;;;2.80;;
72127;SDS011;60000;51.030;7.024;2023-04-03T02:56:56;7.15;;;2.10;;
72127;SDS011;60000;51.030;7.024;2023-04-03T02:59:22;9.15;;;2.42;;
72127;SDS011;60000;51.030;7.024;2023-04-03T03:01:47;5.05;;;2.30;;
72127;SDS011;60000;51.030;7.024;2023-04-03T03:04:13;4.63;;;1.70;;
72127;SDS011;60000;51.030;7.024;2023-04-03T03:06:38;5.90;;;2.30;;
72127;SDS011;60000;51.030;7.024;2023-04-03T03:09:03;5.67;;;2.00;;
72127;SDS011;60000;51.030;7.024;2023-04-03T03:11:30;4.30;;;1.88;;
72127;SDS011;60000;51.030;7.024;2023-04-03T03:13:56;5.30;;;1.80;;
72127;SDS011;60000;51.030;7.024;2023-04-03T03:16:21;4.13;;;1.52;;
72127;SDS011;60000;51.030;7.024;2023-04-03T03:18:46;3.95;;;1.40;;
72127;SDS011;60000;51.030;7.024;2023-04-03T03:21:12;4.57;;;1.80;;
72127;SDS011;60000;51.030;7.024;2023-04-03T03:23:37;4.93;;;1.77;;
72127;SDS011;60000;51.030;7.024;2023-04-03T03:26:04;5.07;;;2.20;;
72127;SDS011;60000;51.030;7.024;2023-04-03T03:28:31;5.28;;;2.00;;
72127;SDS011;60000;51.030;7.024;2023-04-03T03:30:57;6.27;;;2.50;;
72127;SDS011;60000;51.030;7.024;2023-04-03T03:33:22;5.00;;;1.85;;
72127;SDS011;60000;51.030;7.024;2023-04-03T03:35:48;5.97;;;1.83;;
72127;SDS011;60000;51.030;7.024;2023-04-03T03:38:13;6.20;;;1.48;;
72127;SDS011;60000;51.030;7.024;2023-04-03T03:40:39;4.43;;;1.60;;
72127;SDS011;60000;51.030;7.024;2023-04-03T03:43:04;3.90;;;1.53;;
72127;SDS011;60000;51.030;7.024;2023-04-03T03:45:30;5.33;;;1.40;;
72127;SDS011;60000;51.030;7.024;2023-04-03T03:47:56;4.70;;;1.60;;
72127;SDS011;60000;51.030;7.024;2023-04-03T03:50:21;5.93;;;1.37;;
72127;SDS011;60000;51.030;7.024;2023-04-03T03:52:46;4.13;;;1.40;;
72127;SDS011;60000;51.030;7.024;2023-04-03T03:55:12;5.10;;;1.70;;
72127;SDS011;60000;51.030;7.024;2023-04-03T03:57:37;4.90;;;1.70;;
72127;SDS011;60000;51.030;7.024;2023-04-03T04:00:03;7.40;;;1.57;;
72127;SDS011;60000;51.030;7.024;2023-04-03T04:02:29;5.32;;;1.60;;
72127;SDS011;60000;51.030;7.024;2023-04-03T04:04:54;5.73;;;1.53;;
72127;SDS011;60000;51.030;7.024;2023-04-03T04:07:20;5.10;;;1.53;;
72127;SDS011;60000;51.030;7.024;2023-04-03T04:09:45;5.55;;;1.48;;
72127;SDS011;60000;51.030;7.024;2023-04-03T04:12:11;5.25;;;1.65;;
72127;SDS011;60000;51.030;7.024;2023-04-03T04:14:36;6.33;;;1.50;;
72127;SDS011;60000;51.030;7.024;2023-04-03T04:17:01;3.43;;;1.20;;
72127;SDS011;60000;51.030;7.024;2023-04-03T04:19:27;5.13;;;1.30;;
72127;SDS011;60000;51.030;7.024;2023-04-03T04:21:53;4.30;;;1.30;;
72127;SDS011;60000;51.030;7.024;2023-04-03T04:24:18;5.45;;;1.83;;
72127;SDS011;60000;51.030;7.024;2023-04-03T04:26:43;6.80;;;1.60;;
72127;SDS011;60000;51.030;7.024;2023-04-03T04:29:09;5.70;;;1.50;;
72127;SDS011;60000;51.030;7.024;2023-04-03T04:31:35;4.32;;;1.27;;
72127;SDS011;60000;51.030;7.024;2023-04-03T04:34:00;4.77;;;1.43;;
72127;SDS011;60000;51.030;7.024;2023-04-03T04:36:26;6.53;;;1.60;;
72127;SDS011;60000;51.030;7.024;2023-04-03T04:38:51;4.37;;;1.33;;
72127;SDS011;60000;51.030;7.024;2023-04-03T04:41:18;5.93;;;1.65;;
72127;SDS011;60000;51.030;7.024;2023-04-03T04:43:47;5.43;;;1.20;;
72127;SDS011;60000;51.030;7.024;2023-04-03T04:46:12;4.20;;;1.30;;
72127;SDS011;60000;51.030;7.024;2023-04-03T04:48:38;4.83;;;1.30;;
72127;SDS011;60000;51.030;7.024;2023-04-03T04:51:03;4.97;;;1.20;;
72127;SDS011;60000;51.030;7.024;2023-04-03T04:53:29;4.23;;;1.30;;
72127;SDS011;60000;51.030;7.024;2023-04-03T04:55:54;5.57;;;1.63;;
72127;SDS011;60000;51.030;7.024;2023-04-03T04:58:20;5.95;;;1.55;;
72127;SDS011;60000;51.030;7.024;2023-04-03T05:00:45;8.10;;;1.50;;
72127;SDS011;60000;51.030;7.024;2023-04-03T05:03:11;6.30;;;1.30;;
72127;SDS011;60000;51.030;7.024;2023-04-03T05:05:36;5.63;;;1.60;;
72127;SDS011;60000;51.030;7.024;2023-04-03T05:08:02;6.13;;;1.13;;
72127;SDS011;60000;51.030;7.024;2023-04-03T05:10:27;3.83;;;1.20;;
72127;SDS011;60000;51.030;7.024;2023-04-03T05:12:53;3.95;;;1.10;;
72127;SDS011;60000;51.030;7.024;2023-04-03T05:15:18;4.57;;;1.03;;
72127;SDS011;60000;51.030;7.024;2023-04-03T05:17:44;5.73;;;1.30;;
72127;SDS011;60000;51.030;7.024;2023-04-03T05:20:10;5.07;;;1.43;;
72127;SDS011;60000;51.030;7.024;2023-04-03T05:22:36;4.47;;;1.20;;
72127;SDS011;60000;51.030;7.024;2023-04-03T05:25:01;4.80;;;1.33;;
72127;SDS011;60000;51.030;7.024;2023-04-03T05:27:26;6.33;;;1.30;;
72127;SDS011;60000;51.030;7.024;2023-04-03T05:29:53;5.00;;;1.20;;
72127;SDS011;60000;51.030;7.024;2023-04-03T05:32:19;4.85;;;1.33;;
72127;SDS011;60000;51.030;7.024;2023-04-03T05:34:45;4.05;;;1.10;;
72127;SDS011;60000;51.030;7.024;2023-04-03T05:37:11;4.63;;;1.37;;
72127;SDS011;60000;51.030;7.024;2023-04-03T05:39:36;4.67;;;1.33;;
72127;SDS011;60000;51.030;7.024;2023-04-03T05:42:03;5.25;;;1.30;;
72127;SDS011;60000;51.030;7.024;2023-04-03T05:44:28;7.73;;;1.60;;
72127;SDS011;60000;51.030;7.024;2023-04-03T05:46:54;5.25;;;1.27;;
72127;SDS011;60000;51.030;7.024;2023-04-03T05:49:19;5.43;;;1.42;;
72127;SDS011;60000;51.030;7.024;2023-04-03T05:51:44;5.43;;;1.20;;
72127;SDS011;60000;51.030;7.024;2023-04-03T05:54:14;5.20;;;1.60;;
72127;SDS011;60000;51.030;7.024;2023-04-03T05:56:43;4.03;;;1.10;;
72127;SDS011;60000;51.030;7.024;2023-04-03T05:59:08;7.30;;;1.50;;
72127;SDS011;60000;51.030;7.024;2023-04-03T06:01:34;3.70;;;1.13;;
72127;SDS011;60000;51.030;7.024;2023-04-03T06:03:59;6.03;;;1.50;;
72127;SDS011;60000;51.030;7.024;2023-04-03T06:06:25;5.65;;;1.27;;
72127;SDS011;60000;51.030;7.024;2023-04-03T06:08:50;3.80;;;1.27;;
72127;SDS011;60000;51.030;7.024;2023-04-03T06:11:16;6.67;;;1.60;;
72127;SDS011;60000;51.030;7.024;2023-04-03T06:13:42;5.10;;;1.03;;
72127;SDS011;60000;51.030;7.024;2023-04-03T06:16:08;4.63;;;1.17;;
72127;SDS011;60000;51.030;7.024;2023-04-03T06:18:39;6.00;;;1.30;;
72127;SDS011;60000;51.030;7.024;2023-04-03T06:21:04;4.95;;;1.27;;
72127;SDS011;60000;51.030;7.024;2023-04-03T06:23:30;7.17;;;1.30;;
72127;SDS011;60000;51.030;7.024;2023-04-03T06:25:55;6.93;;;1.40;;
72127;SDS011;60000;51.030;7.024;2023-04-03T06:28:20;4.87;;;1.30;;
72127;SDS011;60000;51.030;7.024;2023-04-03T06:30:46;4.73;;;1.33;;
72127;SDS011;60000;51.030;7.024;2023-04-03T06:33:11;3.97;;;1.10;;
72127;SDS011;60000;51.030;7.024;2023-04-03T06:35:36;5.23;;;1.57;;
72127;SDS011;60000;51.030;7.024;2023-04-03T06:38:03;5.97;;;1.27;;
72127;SDS011;60000;51.030;7.024;2023-04-03T06:40:34;5.60;;;1.27;;
72127;SDS011;60000;51.030;7.024;2023-04-03T06:43:00;7.77;;;1.60;;
72127;SDS011;60000;51.030;7.024;2023-04-03T06:45:26;5.50;;;1.63;;
72127;SDS011;60000;51.030;7.024;2023-04-03T06:47:52;3.88;;;1.30;;
72127;SDS011;60000;51.030;7.024;2023-04-03T06:50:18;7.23;;;1.20;;
72127;SDS011;60000;51.030;7.024;2023-04-03T06:52:43;3.83;;;1.20;;
72127;SDS011;60000;51.030;7.024;2023-04-03T06:55:08;4.97;;;1.30;;
72127;SDS011;60000;51.030;7.024;2023-04-03T06:57:34;4.53;;;0.90;;
72127;SDS011;60000;51.030;7.024;2023-04-03T07:00:00;5.70;;;1.20;;
72127;SDS011;60000;51.030;7.024;2023-04-03T07:02:26;4.80;;;0.90;;
72127;SDS011;60000;51.030;7.024;2023-04-03T07:04:52;4.20;;;1.02;;
72127;SDS011;60000;51.030;7.024;2023-04-03T07:07:17;6.83;;;1.10;;
72127;SDS011;60000;51.030;7.024;2023-04-03T07:09:42;3.63;;;1.40;;
72127;SDS011;60000;51.030;7.024;2023-04-03T07:12:08;5.33;;;1.13;;
72127;SDS011;60000;51.030;7.024;2023-04-03T07:14:33;5.40;;;1.37;;
72127;SDS011;60000;51.030;7.024;2023-04-03T07:16:58;5.40;;;1.40;;
72127;SDS011;60000;51.030;7.024;2023-04-03T07:19:24;4.50;;;1.30;;
72127;SDS011;60000;51.030;7.024;2023-04-03T07:21:52;5.38;;;1.40;;
72127;SDS011;60000;51.030;7.024;2023-04-03T07:24:18;5.17;;;0.90;;
72127;SDS011;60000;51.030;7.024;2023-04-03T07:26:43;6.93;;;1.40;;
72127;SDS011;60000;51.030;7.024;2023-04-03T07:29:10;5.32;;;1.30;;
72127;SDS011;60000;51.030;7.024;2023-04-03T07:31:35;5.60;;;1.10;;
72127;SDS011;60000;51.030;7.024;2023-04-03T07:34:01;4.93;;;1.10;;
72127;SDS011;60000;51.030;7.024;2023-04-03T07:36:27;5.05;;;1.30;;
72127;SDS011;60000;51.030;7.024;2023-04-03T07:38:52;5.13;;;1.37;;
72127;SDS011;60000;51.030;7.024;2023-04-03T07:41:19;5.27;;;1.53;;
72127;SDS011;60000;51.030;7.024;2023-04-03T07:43:47;6.20;;;1.50;;
72127;SDS011;60000;51.030;7.024;2023-04-03T07:46:14;5.28;;;1.27;;
72127;SDS011;60000;51.030;7.024;2023-04-03T07:48:40;5.73;;;1.17;;
72127;SDS011;60000;51.030;7.024;2023-04-03T07:51:05;4.77;;;1.30;;
72127;SDS011;60000;51.030;7.024;2023-04-03T07:53:30;4.57;;;1.10;;
72127;SDS011;60000;51.030;7.024;2023-04-03T07:55:56;6.18;;;1.20;;
72127;SDS011;60000;51.030;7.024;2023-04-03T07:58:23;4.68;;;1.20;;
72127;SDS011;60000;51.030;7.024;2023-04-03T08:00:48;4.20;;;1.20;;
72127;SDS011;60000;51.030;7.024;2023-04-03T08:03:14;6.00;;;1.00;;
72127;SDS011;60000;51.030;7.024;2023-04-03T08:05:41;4.78;;;1.25;;
72127;SDS011;60000;51.030;7.024;2023-04-03T08:08:08;4.13;;;1.40;;
72127;SDS011;60000;51.030;7.024;2023-04-03T08:10:35;4.33;;;1.10;;
72127;SDS011;60000;51.030;7.024;2023-04-03T08:13:01;3.65;;;1.00;;
72127;SDS011;60000;51.030;7.024;2023-04-03T08:15:26;4.70;;;1.08;;
72127;SDS011;60000;51.030;7.024;2023-04-03T08:17:52;5.07;;;1.58;;
72127;SDS011;60000;51.030;7.024;2023-04-03T08:20:18;5.05;;;1.10;;
72127;SDS011;60000;51.030;7.024;2023-04-03T08:22:43;5.20;;;1.10;;
72127;SDS011;60000;51.030;7.024;2023-04-03T08:25:09;3.53;;;1.10;;
72127;SDS011;60000;51.030;7.024;2023-04-03T08:27:34;4.70;;;1.33;;
72127;SDS011;60000;51.030;7.024;2023-04-03T08:29:59;4.33;;;1.30;;
72127;SDS011;60000;51.030;7.024;2023-04-03T08:32:25;3.00;;;1.13;;
72127;SDS011;60000;51.030;7.024;2023-04-03T08:34:50;5.90;;;1.48;;
72127;SDS011;60000;51.030;7.024;2023-04-03T08:37:16;3.63;;;0.90;;
72127;SDS011;60000;51.030;7.024;2023-04-03T08:39:43;7.30;;;1.20;;
72127;SDS011;60000;51.030;7.024;2023-04-03T08:42:16;5.27;;;1.10;;
72127;SDS011;60000;51.030;7.024;2023-04-03T08:45:07;5.90;;;1.08;;
72127;SDS011;60000;51.030;7.024;2023-04-03T08:50:31;5.10;;;1.25;;
72127;SDS011;60000;51.030;7.024;2023-04-03T08:53:01;3.95;;;1.00;;
72127;SDS011;60000;51.030;7.024;2023-04-03T08:55:33;4.03;;;1.13;;
72127;SDS011;60000;51.030;7.024;2023-04-03T08:58:11;4.95;;;1.10;;
72127;SDS011;60000;51.030;7.024;2023-04-03T09:00:44;4.17;;;1.10;;
72127;SDS011;60000;51.030;7.024;2023-04-03T09:03:16;4.13;;;1.02;;
72127;SDS011;60000;51.030;7.024;2023-04-03T09:08:37;4.32;;;1.05;;
72127;SDS011;60000;51.030;7.024;2023-04-03T09:19:19;4.22;;;1.38;;
72127;SDS011;60000;51.030;7.024;2023-04-03T09:22:16;3.67;;;0.95;;
72127;SDS011;60000;51.030;7.024;2023-04-03T09:25:10;4.10;;;1.08;;
72127;SDS011;60000;51.030;7.024;2023-04-03T09:27:38;4.43;;;0.90;;
72127;SDS011;60000;51.030;7.024;2023-04-03T09:30:03;4.68;;;1.10;;
72127;SDS011;60000;51.030;7.024;2023-04-03T09:32:35;4.63;;;1.33;;
72127;SDS011;60000;51.030;7.024;2023-04-03T09:35:03;5.65;;;1.00;;
72127;SDS011;60000;51.030;7.024;2023-04-03T09:37:41;5.68;;;1.20;;
72127;SDS011;60000;51.030;7.024;2023-04-03T09:40:27;3.88;;;1.10;;
72127;SDS011;60000;51.030;7.024;2023-04-03T09:42:55;3.85;;;1.30;;
72127;SDS011;60000;51.030;7.024;2023-04-03T09:45:32;4.03;;;1.00;;
72127;SDS011;60000;51.030;7.024;2023-04-03T09:48:06;3.95;;;1.23;;
72127;SDS011;60000;51.030;7.024;2023-04-03T09:50:34;3.85;;;1.20;;
72127;SDS011;60000;51.030;7.024;2023-04-03T09:53:04;3.03;;;1.10;;
72127;SDS011;60000;51.030;7.024;2023-04-03T09:55:50;4.53;;;1.02;;
72127;SDS011;60000;51.030;7.024;2023-04-03T09:58:29;3.88;;;1.20;;
72127;SDS011;60000;51.030;7.024;2023-04-03T10:00:59;4.35;;;1.10;;
72127;SDS011;60000;51.030;7.024;2023-04-03T10:03:33;3.97;;;1.20;;
72127;SDS011;60000;51.030;7.024;2023-04-03T10:06:00;4.18;;;1.02;;
72127;SDS011;60000;51.030;7.024;2023-04-03T10:08:28;4.25;;;1.00;;
72127;SDS011;60000;51.030;7.024;2023-04-03T10:11:07;5.80;;;1.48;;
72127;SDS011;60000;51.030;7.024;2023-04-03T10:13:33;5.35;;;1.38;;
72127;SDS011;60000;51.030;7.024;2023-04-03T10:16:12;5.30;;;1.27;;
72127;SDS011;60000;51.030;7.024;2023-04-03T10:18:44;4.18;;;1.33;;
72127;SDS011;60000;51.030;7.024;2023-04-03T10:34:46;4.17;;;1.00;;
72127;SDS011;60000;51.030;7.024;2023-04-03T10:37:21;3.22;;;1.10;;
72127;SDS011;60000;51.030;7.024;2023-04-03T10:53:11;4.35;;;1.10;;
72127;SDS011;60000;51.030;7.024;2023-04-03T10:55:58;4.30;;;0.95;;
72127;SDS011;60000;51.030;7.024;2023-04-03T10:58:32;4.30;;;1.00;;
72127;SDS011;60000;51.030;7.024;2023-04-03T11:01:02;2.97;;;1.07;;
72127;SDS011;60000;51.030;7.024;2023-04-03T11:09:15;2.92;;;1.00;;
72127;SDS011;60000;51.030;7.024;2023-04-03T11:11:46;4.88;;;1.20;;
72127;SDS011;60000;51.030;7.024;2023-04-03T11:14:30;3.30;;;0.93;;
72127;SDS011;60000;51.030;7.024;2023-04-03T11:22:35;2.25;;;0.75;;
72127;SDS011;60000;51.030;7.024;2023-04-03T11:27:57;3.50;;;0.90;;
72127;SDS011;60000;51.030;7.024;2023-04-03T11:30:38;3.25;;;1.20;;
72127;SDS011;60000;51.030;7.024;2023-04-03T11:35:51;3.85;;;1.00;;
72127;SDS011;60000;51.030;7.024;2023-04-03T11:38:20;3.47;;;0.93;;
72127;SDS011;60000;51.030;7.024;2023-04-03T11:40:54;3.07;;;1.00;;
72127;SDS011;60000;51.030;7.024;2023-04-03T11:43:22;2.78;;;1.00;;
72127;SDS011;60000;51.030;7.024;2023-04-03T11:50:56;2.88;;;0.88;;
72127;SDS011;60000;51.030;7.024;2023-04-03T11:53:37;3.30;;;1.10;;
72127;SDS011;60000;51.030;7.024;2023-04-03T11:59:34;3.15;;;1.00;;
72127;SDS011;60000;51.030;7.024;2023-04-03T12:04:11;4.10;;;1.10;;
72127;SDS011;60000;51.030;7.024;2023-04-03T12:09:21;4.70;;;1.00;;
72127;SDS011;60000;51.030;7.024;2023-04-03T12:11:47;3.45;;;0.93;;
72127;SDS011;60000;51.030;7.024;2023-04-03T12:14:15;3.05;;;1.00;;
72127;SDS011;60000;51.030;7.024;2023-04-03T12:16:42;3.05;;;0.88;;
72127;SDS011;60000;51.030;7.024;2023-04-03T12:24:34;3.03;;;1.10;;
72127;SDS011;60000;51.030;7.024;2023-04-03T12:29:52;3.05;;;0.95;;
72127;SDS011;60000;51.030;7.024;2023-04-03T12:35:18;4.07;;;1.00;;
72127;SDS011;60000;51.030;7.024;2023-04-03T12:46:15;4.25;;;1.00;;
72127;SDS011;60000;51.030;7.024;2023-04-03T12:48:50;2.63;;;1.00;;
72127;SDS011;60000;51.030;7.024;2023-04-03T12:53:48;3.08;;;0.90;;
72127;SDS011;60000;51.030;7.024;2023-04-03T12:56:28;3.38;;;0.98;;
72127;SDS011;60000;51.030;7.024;2023-04-03T12:58:57;3.55;;;0.90;;
72127;SDS011;60000;51.030;7.024;2023-04-03T13:01:38;3.35;;;0.90;;
72127;SDS011;60000;51.030;7.024;2023-04-03T13:04:04;3.67;;;0.77;;
72127;SDS011;60000;51.030;7.024;2023-04-03T13:06:30;2.78;;;0.90;;
72127;SDS011;60000;51.030;7.024;2023-04-03T13:09:00;2.53;;;0.70;;
72127;SDS011;60000;51.030;7.024;2023-04-03T13:11:27;3.63;;;1.00;;
72127;SDS011;60000;51.030;7.024;2023-04-03T13:13:59;3.70;;;1.20;;
72127;SDS011;60000;51.030;7.024;2023-04-03T13:16:30;3.88;;;0.80;;
72127;SDS011;60000;51.030;7.024;2023-04-03T13:18:56;3.95;;;1.10;;
72127;SDS011;60000;51.030;7.024;2023-04-03T13:21:32;3.40;;;1.07;;
72127;SDS011;60000;51.030;7.024;2023-04-03T13:24:00;2.60;;;0.95;;
72127;SDS011;60000;51.030;7.024;2023-04-03T13:26:29;2.72;;;0.90;;
72127;SDS011;60000;51.030;7.024;2023-04-03T13:28:57;3.25;;;0.82;;
72127;SDS011;60000;51.030;7.024;2023-04-03T13:31:36;2.83;;;0.80;;
72127;SDS011;60000;51.030;7.024;2023-04-03T13:36:37;3.17;;;0.90;;
72127;SDS011;60000;51.030;7.024;2023-04-03T13:41:41;4.55;;;1.00;;
72127;SDS011;60000;51.030;7.024;2023-04-03T13:44:25;4.78;;;1.10;;
72127;SDS011;60000;51.030;7.024;2023-04-03T13:47:15;4.03;;;1.07;;
72127;SDS011;60000;51.030;7.024;2023-04-03T13:49:42;3.17;;;0.98;;
72127;SDS011;60000;51.030;7.024;2023-04-03T13:52:21;4.03;;;1.00;;
72127;SDS011;60000;51.030;7.024;2023-04-03T13:54:51;2.20;;;0.88;;
72127;SDS011;60000;51.030;7.024;2023-04-03T13:57:19;3.97;;;1.10;;
72127;SDS011;60000;51.030;7.024;2023-04-03T13:59:52;4.27;;;1.03;;
72127;SDS011;60000;51.030;7.024;2023-04-03T14:02:31;3.58;;;1.00;;
72127;SDS011;60000;51.030;7.024;2023-04-03T14:04:59;4.60;;;1.15;;
72127;SDS011;60000;51.030;7.024;2023-04-03T14:07:27;3.97;;;1.02;;
72127;SDS011;60000;51.030;7.024;2023-04-03T14:09:54;7.73;;;1.00;;
72127;SDS011;60000;51.030;7.024;2023-04-03T14:12:27;4.65;;;1.10;;
72127;SDS011;60000;51.030;7.024;2023-04-03T14:14:58;4.03;;;1.17;;
72127;SDS011;60000;51.030;7.024;2023-04-03T14:17:26;3.25;;;0.70;;
72127;SDS011;60000;51.030;7.024;2023-04-03T14:19:53;2.65;;;0.90;;
72127;SDS011;60000;51.030;7.024;2023-04-03T14:24:51;3.78;;;1.00;;
72127;SDS011;60000;51.030;7.024;2023-04-03T14:27:27;4.32;;;1.20;;
72127;SDS011;60000;51.030;7.024;2023-04-03T14:29:55;5.38;;;1.20;;
72127;SDS011;60000;51.030;7.024;2023-04-03T14:32:23;2.92;;;0.93;;
72127;SDS011;60000;51.030;7.024;2023-04-03T14:34:50;3.40;;;0.90;;
72127;SDS011;60000;51.030;7.024;2023-04-03T14:37:18;3.20;;;0.95;;
72127;SDS011;60000;51.030;7.024;2023-04-03T14:39:45;4.13;;;1.10;;
72127;SDS011;60000;51.030;7.024;2023-04-03T14:42:19;4.32;;;1.00;;
72127;SDS011;60000;51.030;7.024;2023-04-03T14:44:50;3.53;;;1.00;;
72127;SDS011;60000;51.030;7.024;2023-04-03T14:47:18;4.10;;;1.10;;
72127;SDS011;60000;51.030;7.024;2023-04-03T14:49:46;3.30;;;0.88;;
72127;SDS011;60000;51.030;7.024;2023-04-03T14:52:19;5.23;;;1.00;;
72127;SDS011;60000;51.030;7.024;2023-04-03T14:54:53;4.80;;;1.02;;
72127;SDS011;60000;51.030;7.024;2023-04-03T14:57:19;3.20;;;1.10;;
72127;SDS011;60000;51.030;7.024;2023-04-03T14:59:48;4.28;;;1.23;;
72127;SDS011;60000;51.030;7.024;2023-04-03T15:02:24;4.60;;;1.20;;
72127;SDS011;60000;51.030;7.024;2023-04-03T15:04:54;3.45;;;1.10;;
72127;SDS011;60000;51.030;7.024;2023-04-03T15:07:21;4.22;;;1.00;;
72127;SDS011;60000;51.030;7.024;2023-04-03T15:09:47;6.18;;;1.27;;
72127;SDS011;60000;51.030;7.024;2023-04-03T15:12:13;4.07;;;1.20;;
72127;SDS011;60000;51.030;7.024;2023-04-03T15:14:38;5.88;;;1.30;;
72127;SDS011;60000;51.030;7.024;2023-04-03T15:17:04;5.83;;;1.30;;
72127;SDS011;60000;51.030;7.024;2023-04-03T15:19:40;5.43;;;1.30;;
72127;SDS011;60000;51.030;7.024;2023-04-03T15:22:06;3.80;;;1.17;;
72127;SDS011;60000;51.030;7.024;2023-04-03T15:24:31;3.80;;;1.00;;
72127;SDS011;60000;51.030;7.024;2023-04-03T15:26:57;4.30;;;1.10;;
72127;SDS011;60000;51.030;7.024;2023-04-03T15:29:24;3.50;;;0.90;;
72127;SDS011;60000;51.030;7.024;2023-04-03T15:31:49;4.40;;;1.07;;
72127;SDS011;60000;51.030;7.024;2023-04-03T15:34:18;4.82;;;1.17;;
72127;SDS011;60000;51.030;7.024;2023-04-03T15:36:44;3.30;;;1.05;;
72127;SDS011;60000;51.030;7.024;2023-04-03T15:39:09;2.63;;;1.00;;
72127;SDS011;60000;51.030;7.024;2023-04-03T15:41:35;4.18;;;1.00;;
72127;SDS011;60000;51.030;7.024;2023-04-03T15:44:00;4.13;;;1.33;;
72127;SDS011;60000;51.030;7.024;2023-04-03T15:46:26;4.30;;;1.00;;
72127;SDS011;60000;51.030;7.024;2023-04-03T15:48:51;3.53;;;0.80;;
72127;SDS011;60000;51.030;7.024;2023-04-03T15:51:16;2.57;;;1.00;;
72127;SDS011;60000;51.030;7.024;2023-04-03T15:53:42;3.37;;;1.00;;
72127;SDS011;60000;51.030;7.024;2023-04-03T15:56:08;4.70;;;1.02;;
72127;SDS011;60000;51.030;7.024;2023-04-03T15:58:34;4.13;;;1.00;;
72127;SDS011;60000;51.030;7.024;2023-04-03T16:01:00;4.83;;;1.00;;
72127;SDS011;60000;51.030;7.024;2023-04-03T16:03:26;2.70;;;1.05;;
72127;SDS011;60000;51.030;7.024;2023-04-03T16:05:51;4.93;;;1.00;;
72127;SDS011;60000;51.030;7.024;2023-04-03T16:08:17;3.75;;;1.10;;
72127;SDS011;60000;51.030;7.024;2023-04-03T16:10:43;6.65;;;1.13;;
72127;SDS011;60000;51.030;7.024;2023-04-03T16:13:12;3.95;;;1.08;;
72127;SDS011;60000;51.030;7.024;2023-04-03T16:15:38;4.60;;;1.52;;
72127;SDS011;60000;51.030;7.024;2023-04-03T16:18:04;5.50;;;1.45;;
72127;SDS011;60000;51.030;7.024;2023-04-03T16:20:30;5.40;;;0.93;;
72127;SDS011;60000;51.030;7.024;2023-04-03T16:22:56;3.47;;;1.00;;
72127;SDS011;60000;51.030;7.024;2023-04-03T16:25:23;3.53;;;1.13;;
72127;SDS011;60000;51.030;7.024;2023-04-03T16:27:49;4.80;;;1.00;;
72127;SDS011;60000;51.030;7.024;2023-04-03T16:30:14;3.83;;;1.13;;
72127;SDS011;60000;51.030;7.024;2023-04-03T16:32:40;4.75;;;0.98;;
72127;SDS011;60000;51.030;7.024;2023-04-03T16:35:06;3.67;;;0.95;;
72127;SDS011;60000;51.030;7.024;2023-04-03T16:37:32;3.22;;;0.95;;